Terminal Aerodrome Forecast
Issued by NWS

Home | Current Version | Previous Version | Text Only | Print | Product List | Glossary On
Versions: 1 2 3 4 5 6 7 8 9 10 11 12 13 14 15 16
000
FTUS42 KMLB 030007 AAA
TAFSFB
TAF AMD
KSFB 030007Z 0300/0324 14010KT P6SM BKN250
     FM030100 15008KT P6SM VCTS SCT040CB BKN100
      TEMPO 0301/0303 VRB15G30KT 1SM +TSRA BKN020CB
     FM030300 18005KT P6SM SCT080 BKN250
     FM031500 24010KT P6SM SCT025
     FM031800 24009KT P6SM VCTS BKN035CB=

USA.gov is the U.S. government's official web portal to all federal, state and local government web resources and services.